sensor_id;sensor_type;location;lat;lon;timestamp;P1;durP1;ratioP1;P2;durP2;ratioP2
58404;SDS011;44200;50.732;4.276;2022-07-23T00:02:23;23.77;;;13.30;;
58404;SDS011;44200;50.732;4.276;2022-07-23T00:04:48;23.27;;;13.95;;
58404;SDS011;44200;50.732;4.276;2022-07-23T00:07:14;24.15;;;13.93;;
58404;SDS011;44200;50.732;4.276;2022-07-23T00:09:40;26.33;;;14.88;;
58404;SDS011;44200;50.732;4.276;2022-07-23T00:12:05;22.40;;;13.82;;
58404;SDS011;44200;50.732;4.276;2022-07-23T00:14:31;22.50;;;14.40;;
58404;SDS011;44200;50.732;4.276;2022-07-23T00:16:57;25.05;;;13.25;;
58404;SDS011;44200;50.732;4.276;2022-07-23T00:19:22;21.77;;;13.68;;
58404;SDS011;44200;50.732;4.276;2022-07-23T00:21:48;26.80;;;13.65;;
58404;SDS011;44200;50.732;4.276;2022-07-23T00:24:16;23.60;;;13.90;;
58404;SDS011;44200;50.732;4.276;2022-07-23T00:26:42;24.88;;;13.15;;
58404;SDS011;44200;50.732;4.276;2022-07-23T00:29:08;20.55;;;13.55;;
58404;SDS011;44200;50.732;4.276;2022-07-23T00:31:33;25.60;;;14.80;;
58404;SDS011;44200;50.732;4.276;2022-07-23T00:33:59;23.63;;;14.88;;
58404;SDS011;44200;50.732;4.276;2022-07-23T00:36:26;24.88;;;13.55;;
58404;SDS011;44200;50.732;4.276;2022-07-23T00:38:52;23.30;;;14.00;;
58404;SDS011;44200;50.732;4.276;2022-07-23T00:41:18;20.65;;;13.35;;
58404;SDS011;44200;50.732;4.276;2022-07-23T00:43:44;21.60;;;13.13;;
58404;SDS011;44200;50.732;4.276;2022-07-23T00:46:10;19.63;;;14.00;;
58404;SDS011;44200;50.732;4.276;2022-07-23T00:48:36;21.55;;;13.55;;
58404;SDS011;44200;50.732;4.276;2022-07-23T00:51:02;30.63;;;15.48;;
58404;SDS011;44200;50.732;4.276;2022-07-23T00:53:28;24.70;;;14.23;;
58404;SDS011;44200;50.732;4.276;2022-07-23T00:55:53;21.42;;;13.40;;
58404;SDS011;44200;50.732;4.276;2022-07-23T00:58:19;23.48;;;14.32;;
58404;SDS011;44200;50.732;4.276;2022-07-23T01:00:45;22.85;;;14.77;;
58404;SDS011;44200;50.732;4.276;2022-07-23T01:03:11;23.60;;;14.57;;
58404;SDS011;44200;50.732;4.276;2022-07-23T01:05:37;25.30;;;14.85;;
58404;SDS011;44200;50.732;4.276;2022-07-23T01:08:03;26.17;;;16.27;;
58404;SDS011;44200;50.732;4.276;2022-07-23T01:10:31;21.48;;;14.15;;
58404;SDS011;44200;50.732;4.276;2022-07-23T01:13:06;23.38;;;14.65;;
58404;SDS011;44200;50.732;4.276;2022-07-23T01:15:34;26.08;;;14.80;;
58404;SDS011;44200;50.732;4.276;2022-07-23T01:18:01;24.48;;;15.48;;
58404;SDS011;44200;50.732;4.276;2022-07-23T01:20:29;24.63;;;16.42;;
58404;SDS011;44200;50.732;4.276;2022-07-23T01:22:55;26.00;;;15.32;;
58404;SDS011;44200;50.732;4.276;2022-07-23T01:25:21;24.95;;;15.23;;
58404;SDS011;44200;50.732;4.276;2022-07-23T01:27:48;30.52;;;15.88;;
58404;SDS011;44200;50.732;4.276;2022-07-23T01:30:14;27.88;;;15.73;;
58404;SDS011;44200;50.732;4.276;2022-07-23T01:32:40;21.30;;;14.27;;
58404;SDS011;44200;50.732;4.276;2022-07-23T01:35:06;23.02;;;15.48;;
58404;SDS011;44200;50.732;4.276;2022-07-23T01:37:33;24.40;;;16.00;;
58404;SDS011;44200;50.732;4.276;2022-07-23T01:39:59;24.83;;;15.38;;
58404;SDS011;44200;50.732;4.276;2022-07-23T01:42:24;27.70;;;16.73;;
58404;SDS011;44200;50.732;4.276;2022-07-23T01:44:50;24.88;;;15.45;;
58404;SDS011;44200;50.732;4.276;2022-07-23T01:47:16;24.23;;;16.23;;
58404;SDS011;44200;50.732;4.276;2022-07-23T01:49:42;26.17;;;16.05;;
58404;SDS011;44200;50.732;4.276;2022-07-23T01:52:07;29.38;;;16.75;;
58404;SDS011;44200;50.732;4.276;2022-07-23T01:54:36;31.73;;;17.85;;
58404;SDS011;44200;50.732;4.276;2022-07-23T01:57:03;25.52;;;15.95;;
58404;SDS011;44200;50.732;4.276;2022-07-23T01:59:29;26.52;;;16.17;;
58404;SDS011;44200;50.732;4.276;2022-07-23T02:04:30;26.65;;;16.45;;
58404;SDS011;44200;50.732;4.276;2022-07-23T02:06:56;24.90;;;16.08;;
58404;SDS011;44200;50.732;4.276;2022-07-23T02:09:21;29.10;;;15.25;;
58404;SDS011;44200;50.732;4.276;2022-07-23T02:11:47;23.42;;;15.07;;
58404;SDS011;44200;50.732;4.276;2022-07-23T02:14:13;27.98;;;16.27;;
58404;SDS011;44200;50.732;4.276;2022-07-23T02:16:39;25.98;;;15.57;;
58404;SDS011;44200;50.732;4.276;2022-07-23T02:19:04;25.30;;;15.45;;
58404;SDS011;44200;50.732;4.276;2022-07-23T02:21:30;23.98;;;15.73;;
58404;SDS011;44200;50.732;4.276;2022-07-23T02:23:56;25.38;;;16.08;;
58404;SDS011;44200;50.732;4.276;2022-07-23T02:26:22;23.80;;;15.85;;
58404;SDS011;44200;50.732;4.276;2022-07-23T02:28:47;25.40;;;15.70;;
58404;SDS011;44200;50.732;4.276;2022-07-23T02:31:13;25.30;;;14.73;;
58404;SDS011;44200;50.732;4.276;2022-07-23T02:33:38;23.73;;;14.73;;
58404;SDS011;44200;50.732;4.276;2022-07-23T02:36:04;28.67;;;16.85;;
58404;SDS011;44200;50.732;4.276;2022-07-23T02:38:30;28.23;;;16.05;;
58404;SDS011;44200;50.732;4.276;2022-07-23T02:40:55;26.08;;;15.95;;
58404;SDS011;44200;50.732;4.276;2022-07-23T02:43:21;25.15;;;16.30;;
58404;SDS011;44200;50.732;4.276;2022-07-23T02:45:47;26.73;;;16.08;;
58404;SDS011;44200;50.732;4.276;2022-07-23T02:48:12;24.08;;;15.60;;
58404;SDS011;44200;50.732;4.276;2022-07-23T02:50:38;30.58;;;16.52;;
58404;SDS011;44200;50.732;4.276;2022-07-23T02:53:04;24.50;;;14.90;;
58404;SDS011;44200;50.732;4.276;2022-07-23T02:55:30;24.55;;;15.85;;
58404;SDS011;44200;50.732;4.276;2022-07-23T02:57:56;24.65;;;16.92;;
58404;SDS011;44200;50.732;4.276;2022-07-23T03:00:22;23.05;;;14.95;;
58404;SDS011;44200;50.732;4.276;2022-07-23T03:02:48;26.00;;;16.48;;
58404;SDS011;44200;50.732;4.276;2022-07-23T03:05:14;25.40;;;15.63;;
58404;SDS011;44200;50.732;4.276;2022-07-23T03:07:39;27.40;;;16.27;;
58404;SDS011;44200;50.732;4.276;2022-07-23T03:10:05;25.38;;;16.70;;
58404;SDS011;44200;50.732;4.276;2022-07-23T03:12:31;28.98;;;15.50;;
58404;SDS011;44200;50.732;4.276;2022-07-23T03:14:57;26.10;;;15.30;;
58404;SDS011;44200;50.732;4.276;2022-07-23T03:17:22;26.60;;;16.45;;
58404;SDS011;44200;50.732;4.276;2022-07-23T03:19:48;24.02;;;15.20;;
58404;SDS011;44200;50.732;4.276;2022-07-23T03:22:14;23.25;;;14.93;;
58404;SDS011;44200;50.732;4.276;2022-07-23T03:24:40;22.67;;;14.48;;
58404;SDS011;44200;50.732;4.276;2022-07-23T03:27:24;21.92;;;14.65;;
58404;SDS011;44200;50.732;4.276;2022-07-23T03:29:52;22.55;;;14.63;;
58404;SDS011;44200;50.732;4.276;2022-07-23T03:32:19;23.48;;;15.55;;
58404;SDS011;44200;50.732;4.276;2022-07-23T03:34:46;26.08;;;15.07;;
58404;SDS011;44200;50.732;4.276;2022-07-23T03:37:12;23.80;;;15.45;;
58404;SDS011;44200;50.732;4.276;2022-07-23T03:39:38;24.17;;;15.18;;
58404;SDS011;44200;50.732;4.276;2022-07-23T03:42:04;28.35;;;15.82;;
58404;SDS011;44200;50.732;4.276;2022-07-23T03:44:30;24.13;;;15.98;;
58404;SDS011;44200;50.732;4.276;2022-07-23T03:46:56;26.30;;;14.90;;
58404;SDS011;44200;50.732;4.276;2022-07-23T03:49:22;24.08;;;15.82;;
58404;SDS011;44200;50.732;4.276;2022-07-23T03:51:48;27.00;;;16.42;;
58404;SDS011;44200;50.732;4.276;2022-07-23T03:54:13;26.27;;;16.73;;
58404;SDS011;44200;50.732;4.276;2022-07-23T03:56:39;30.33;;;17.77;;
58404;SDS011;44200;50.732;4.276;2022-07-23T03:59:05;25.50;;;16.10;;
58404;SDS011;44200;50.732;4.276;2022-07-23T04:01:30;27.55;;;16.35;;
58404;SDS011;44200;50.732;4.276;2022-07-23T04:03:56;25.52;;;15.45;;
58404;SDS011;44200;50.732;4.276;2022-07-23T04:06:22;26.42;;;16.23;;
58404;SDS011;44200;50.732;4.276;2022-07-23T04:08:47;27.08;;;17.33;;
58404;SDS011;44200;50.732;4.276;2022-07-23T04:11:13;26.15;;;15.82;;
58404;SDS011;44200;50.732;4.276;2022-07-23T04:13:39;29.60;;;16.98;;
58404;SDS011;44200;50.732;4.276;2022-07-23T04:16:04;28.27;;;18.30;;
58404;SDS011;44200;50.732;4.276;2022-07-23T04:18:31;24.05;;;16.30;;
58404;SDS011;44200;50.732;4.276;2022-07-23T04:20:57;26.65;;;17.40;;
58404;SDS011;44200;50.732;4.276;2022-07-23T04:23:22;27.92;;;16.15;;
58404;SDS011;44200;50.732;4.276;2022-07-23T04:25:48;25.25;;;16.10;;
58404;SDS011;44200;50.732;4.276;2022-07-23T04:28:14;31.98;;;16.33;;
58404;SDS011;44200;50.732;4.276;2022-07-23T04:30:40;26.40;;;15.52;;
58404;SDS011;44200;50.732;4.276;2022-07-23T04:33:06;26.20;;;15.63;;
58404;SDS011;44200;50.732;4.276;2022-07-23T04:35:35;28.65;;;16.52;;
58404;SDS011;44200;50.732;4.276;2022-07-23T04:38:01;25.58;;;16.60;;
58404;SDS011;44200;50.732;4.276;2022-07-23T04:40:27;26.63;;;16.63;;
58404;SDS011;44200;50.732;4.276;2022-07-23T04:42:53;27.83;;;16.42;;
58404;SDS011;44200;50.732;4.276;2022-07-23T04:45:19;28.10;;;16.45;;
58404;SDS011;44200;50.732;4.276;2022-07-23T04:47:44;25.30;;;15.70;;
58404;SDS011;44200;50.732;4.276;2022-07-23T04:50:10;27.95;;;16.52;;
58404;SDS011;44200;50.732;4.276;2022-07-23T04:52:36;29.65;;;17.55;;
58404;SDS011;44200;50.732;4.276;2022-07-23T04:55:02;25.83;;;16.50;;
58404;SDS011;44200;50.732;4.276;2022-07-23T04:57:29;30.08;;;17.27;;
58404;SDS011;44200;50.732;4.276;2022-07-23T04:59:55;28.80;;;18.15;;
58404;SDS011;44200;50.732;4.276;2022-07-23T05:02:20;29.17;;;18.00;;
58404;SDS011;44200;50.732;4.276;2022-07-23T05:04:46;30.17;;;18.40;;
58404;SDS011;44200;50.732;4.276;2022-07-23T05:07:11;33.15;;;18.90;;
58404;SDS011;44200;50.732;4.276;2022-07-23T05:09:37;30.17;;;18.10;;
58404;SDS011;44200;50.732;4.276;2022-07-23T05:12:03;29.85;;;18.42;;
58404;SDS011;44200;50.732;4.276;2022-07-23T05:14:29;29.23;;;17.98;;
58404;SDS011;44200;50.732;4.276;2022-07-23T05:16:54;28.40;;;17.17;;
58404;SDS011;44200;50.732;4.276;2022-07-23T05:19:20;32.90;;;20.80;;
58404;SDS011;44200;50.732;4.276;2022-07-23T05:21:46;30.45;;;20.15;;
58404;SDS011;44200;50.732;4.276;2022-07-23T05:24:12;24.38;;;12.68;;
58404;SDS011;44200;50.732;4.276;2022-07-23T05:26:37;21.27;;;10.80;;
58404;SDS011;44200;50.732;4.276;2022-07-23T05:29:03;26.77;;;11.35;;
58404;SDS011;44200;50.732;4.276;2022-07-23T05:31:29;18.63;;;10.80;;
58404;SDS011;44200;50.732;4.276;2022-07-23T05:33:54;19.17;;;11.35;;
58404;SDS011;44200;50.732;4.276;2022-07-23T05:36:20;18.20;;;11.63;;
58404;SDS011;44200;50.732;4.276;2022-07-23T05:38:46;21.90;;;11.75;;
58404;SDS011;44200;50.732;4.276;2022-07-23T05:41:11;19.77;;;11.88;;
58404;SDS011;44200;50.732;4.276;2022-07-23T05:43:37;18.38;;;11.75;;
58404;SDS011;44200;50.732;4.276;2022-07-23T05:46:03;18.00;;;11.10;;
58404;SDS011;44200;50.732;4.276;2022-07-23T05:48:28;21.13;;;11.90;;
58404;SDS011;44200;50.732;4.276;2022-07-23T05:50:54;17.33;;;11.52;;
58404;SDS011;44200;50.732;4.276;2022-07-23T05:53:19;17.42;;;12.50;;
58404;SDS011;44200;50.732;4.276;2022-07-23T05:55:45;17.88;;;11.98;;
58404;SDS011;44200;50.732;4.276;2022-07-23T05:58:11;19.27;;;13.05;;
58404;SDS011;44200;50.732;4.276;2022-07-23T06:00:36;23.30;;;13.20;;
58404;SDS011;44200;50.732;4.276;2022-07-23T06:03:02;24.85;;;13.07;;
58404;SDS011;44200;50.732;4.276;2022-07-23T06:05:28;21.52;;;12.88;;
58404;SDS011;44200;50.732;4.276;2022-07-23T06:07:53;20.70;;;13.40;;
58404;SDS011;44200;50.732;4.276;2022-07-23T06:10:22;22.30;;;14.15;;
58404;SDS011;44200;50.732;4.276;2022-07-23T06:12:47;20.25;;;13.75;;
58404;SDS011;44200;50.732;4.276;2022-07-23T06:15:13;25.55;;;16.27;;
58404;SDS011;44200;50.732;4.276;2022-07-23T06:17:39;27.88;;;17.63;;
58404;SDS011;44200;50.732;4.276;2022-07-23T06:20:05;26.02;;;16.73;;
58404;SDS011;44200;50.732;4.276;2022-07-23T06:22:32;23.30;;;16.15;;
58404;SDS011;44200;50.732;4.276;2022-07-23T06:25:01;24.15;;;14.93;;
58404;SDS011;44200;50.732;4.276;2022-07-23T06:27:27;24.98;;;16.00;;
58404;SDS011;44200;50.732;4.276;2022-07-23T06:29:53;28.75;;;15.63;;
58404;SDS011;44200;50.732;4.276;2022-07-23T06:32:19;22.63;;;15.32;;
58404;SDS011;44200;50.732;4.276;2022-07-23T06:34:45;22.10;;;15.02;;
58404;SDS011;44200;50.732;4.276;2022-07-23T06:37:11;22.27;;;14.82;;
58404;SDS011;44200;50.732;4.276;2022-07-23T06:39:36;23.67;;;15.63;;
58404;SDS011;44200;50.732;4.276;2022-07-23T06:42:02;23.73;;;15.50;;
58404;SDS011;44200;50.732;4.276;2022-07-23T06:44:27;24.50;;;15.07;;
58404;SDS011;44200;50.732;4.276;2022-07-23T06:46:53;25.85;;;14.40;;
58404;SDS011;44200;50.732;4.276;2022-07-23T06:49:19;22.70;;;14.75;;
58404;SDS011;44200;50.732;4.276;2022-07-23T06:51:45;23.70;;;14.90;;
58404;SDS011;44200;50.732;4.276;2022-07-23T06:54:11;22.90;;;14.43;;
58404;SDS011;44200;50.732;4.276;2022-07-23T06:56:36;21.80;;;14.18;;
58404;SDS011;44200;50.732;4.276;2022-07-23T06:59:02;22.65;;;14.68;;
58404;SDS011;44200;50.732;4.276;2022-07-23T07:01:28;24.15;;;14.43;;
58404;SDS011;44200;50.732;4.276;2022-07-23T07:03:54;19.38;;;13.50;;
58404;SDS011;44200;50.732;4.276;2022-07-23T07:06:23;22.20;;;14.10;;
58404;SDS011;44200;50.732;4.276;2022-07-23T07:08:48;17.33;;;13.43;;
58404;SDS011;44200;50.732;4.276;2022-07-23T07:11:14;20.98;;;13.68;;
58404;SDS011;44200;50.732;4.276;2022-07-23T07:13:40;20.67;;;14.25;;
58404;SDS011;44200;50.732;4.276;2022-07-23T07:16:05;24.95;;;13.80;;
58404;SDS011;44200;50.732;4.276;2022-07-23T07:18:31;23.05;;;15.23;;
58404;SDS011;44200;50.732;4.276;2022-07-23T07:20:57;24.92;;;15.10;;
58404;SDS011;44200;50.732;4.276;2022-07-23T07:23:23;28.63;;;15.80;;
58404;SDS011;44200;50.732;4.276;2022-07-23T07:25:49;25.00;;;15.13;;
58404;SDS011;44200;50.732;4.276;2022-07-23T07:28:14;19.20;;;13.45;;
58404;SDS011;44200;50.732;4.276;2022-07-23T07:30:40;19.83;;;12.25;;
58404;SDS011;44200;50.732;4.276;2022-07-23T07:33:06;23.88;;;12.57;;
58404;SDS011;44200;50.732;4.276;2022-07-23T07:35:31;20.90;;;12.73;;
58404;SDS011;44200;50.732;4.276;2022-07-23T07:37:58;19.08;;;12.85;;
58404;SDS011;44200;50.732;4.276;2022-07-23T07:40:25;20.52;;;12.23;;
58404;SDS011;44200;50.732;4.276;2022-07-23T07:42:51;21.42;;;12.77;;
58404;SDS011;44200;50.732;4.276;2022-07-23T07:45:21;21.17;;;12.15;;
58404;SDS011;44200;50.732;4.276;2022-07-23T07:47:48;20.73;;;12.20;;
58404;SDS011;44200;50.732;4.276;2022-07-23T07:50:14;24.40;;;11.75;;
58404;SDS011;44200;50.732;4.276;2022-07-23T07:52:39;18.08;;;11.57;;
58404;SDS011;44200;50.732;4.276;2022-07-23T07:55:06;19.80;;;12.48;;
58404;SDS011;44200;50.732;4.276;2022-07-23T07:57:33;19.45;;;11.75;;
58404;SDS011;44200;50.732;4.276;2022-07-23T07:59:59;19.08;;;11.82;;
58404;SDS011;44200;50.732;4.276;2022-07-23T08:02:25;21.50;;;12.57;;
58404;SDS011;44200;50.732;4.276;2022-07-23T08:04:51;20.70;;;11.73;;
58404;SDS011;44200;50.732;4.276;2022-07-23T08:07:16;19.40;;;11.93;;
58404;SDS011;44200;50.732;4.276;2022-07-23T08:09:42;21.35;;;12.40;;
58404;SDS011;44200;50.732;4.276;2022-07-23T08:12:08;18.23;;;11.10;;
58404;SDS011;44200;50.732;4.276;2022-07-23T08:14:33;18.25;;;10.82;;
58404;SDS011;44200;50.732;4.276;2022-07-23T08:16:59;20.65;;;10.77;;
58404;SDS011;44200;50.732;4.276;2022-07-23T08:19:25;16.33;;;9.57;;
58404;SDS011;44200;50.732;4.276;2022-07-23T08:21:50;17.20;;;10.48;;
58404;SDS011;44200;50.732;4.276;2022-07-23T08:24:16;14.27;;;9.55;;
58404;SDS011;44200;50.732;4.276;2022-07-23T08:26:42;14.40;;;10.02;;
58404;SDS011;44200;50.732;4.276;2022-07-23T08:29:07;16.95;;;9.30;;
58404;SDS011;44200;50.732;4.276;2022-07-23T08:31:33;18.30;;;9.07;;
58404;SDS011;44200;50.732;4.276;2022-07-23T08:33:59;20.08;;;9.10;;
58404;SDS011;44200;50.732;4.276;2022-07-23T08:36:25;16.88;;;8.80;;
58404;SDS011;44200;50.732;4.276;2022-07-23T08:38:52;13.73;;;8.70;;
58404;SDS011;44200;50.732;4.276;2022-07-23T08:41:19;12.38;;;7.88;;
58404;SDS011;44200;50.732;4.276;2022-07-23T08:43:46;17.85;;;7.80;;
58404;SDS011;44200;50.732;4.276;2022-07-23T08:46:12;13.68;;;8.23;;
58404;SDS011;44200;50.732;4.276;2022-07-23T08:48:39;15.20;;;8.73;;
58404;SDS011;44200;50.732;4.276;2022-07-23T08:51:05;12.52;;;8.13;;
58404;SDS011;44200;50.732;4.276;2022-07-23T08:53:32;9.82;;;7.10;;
58404;SDS011;44200;50.732;4.276;2022-07-23T08:56:00;14.55;;;7.43;;
58404;SDS011;44200;50.732;4.276;2022-07-23T08:58:27;11.82;;;7.70;;
58404;SDS011;44200;50.732;4.276;2022-07-23T09:00:53;15.82;;;8.13;;
58404;SDS011;44200;50.732;4.276;2022-07-23T09:03:22;10.55;;;7.05;;
58404;SDS011;44200;50.732;4.276;2022-07-23T09:05:58;11.30;;;7.47;;
58404;SDS011;44200;50.732;4.276;2022-07-23T09:11:09;13.25;;;7.45;;
58404;SDS011;44200;50.732;4.276;2022-07-23T09:16:05;11.80;;;7.10;;
58404;SDS011;44200;50.732;4.276;2022-07-23T09:18:35;10.73;;;7.10;;
58404;SDS011;44200;50.732;4.276;2022-07-23T09:21:10;10.48;;;7.45;;
58404;SDS011;44200;50.732;4.276;2022-07-23T09:23:45;12.05;;;6.55;;
58404;SDS011;44200;50.732;4.276;2022-07-23T09:26:57;8.98;;;6.13;;
58404;SDS011;44200;50.732;4.276;2022-07-23T09:31:52;9.18;;;6.05;;
58404;SDS011;44200;50.732;4.276;2022-07-23T09:34:20;10.20;;;6.38;;
58404;SDS011;44200;50.732;4.276;2022-07-23T09:36:47;9.65;;;5.85;;
58404;SDS011;44200;50.732;4.276;2022-07-23T09:39:14;9.30;;;5.90;;
58404;SDS011;44200;50.732;4.276;2022-07-23T09:41:46;9.13;;;6.00;;
58404;SDS011;44200;50.732;4.276;2022-07-23T09:44:16;10.35;;;6.80;;
58404;SDS011;44200;50.732;4.276;2022-07-23T09:46:48;9.18;;;5.97;;
58404;SDS011;44200;50.732;4.276;2022-07-23T09:49:16;8.82;;;5.72;;
58404;SDS011;44200;50.732;4.276;2022-07-23T09:51:53;11.52;;;6.50;;
58404;SDS011;44200;50.732;4.276;2022-07-23T09:54:26;9.27;;;5.97;;
58404;SDS011;44200;50.732;4.276;2022-07-23T09:56:58;11.48;;;7.03;;
58404;SDS011;44200;50.732;4.276;2022-07-23T09:59:26;12.38;;;6.03;;
58404;SDS011;44200;50.732;4.276;2022-07-23T10:01:54;8.98;;;5.30;;
58404;SDS011;44200;50.732;4.276;2022-07-23T10:04:22;10.25;;;5.38;;
58404;SDS011;44200;50.732;4.276;2022-07-23T10:06:51;12.32;;;5.15;;
58404;SDS011;44200;50.732;4.276;2022-07-23T10:09:22;7.55;;;5.00;;
58404;SDS011;44200;50.732;4.276;2022-07-23T10:11:49;7.88;;;5.07;;
58404;SDS011;44200;50.732;4.276;2022-07-23T10:14:17;7.13;;;4.80;;
58404;SDS011;44200;50.732;4.276;2022-07-23T10:16:43;9.23;;;4.43;;
58404;SDS011;44200;50.732;4.276;2022-07-23T10:19:09;8.70;;;5.45;;
58404;SDS011;44200;50.732;4.276;2022-07-23T10:21:51;8.77;;;5.15;;
58404;SDS011;44200;50.732;4.276;2022-07-23T10:24:33;5.50;;;3.53;;
58404;SDS011;44200;50.732;4.276;2022-07-23T10:39:10;4.80;;;3.03;;
58404;SDS011;44200;50.732;4.276;2022-07-23T10:41:42;5.03;;;3.10;;
58404;SDS011;44200;50.732;4.276;2022-07-23T10:44:10;5.75;;;3.30;;
58404;SDS011;44200;50.732;4.276;2022-07-23T10:47:01;4.22;;;2.92;;
58404;SDS011;44200;50.732;4.276;2022-07-23T10:49:43;5.55;;;3.40;;
58404;SDS011;44200;50.732;4.276;2022-07-23T10:54:54;6.95;;;3.25;;
58404;SDS011;44200;50.732;4.276;2022-07-23T10:57:25;4.20;;;3.33;;
58404;SDS011;44200;50.732;4.276;2022-07-23T11:02:30;5.57;;;3.42;;
58404;SDS011;44200;50.732;4.276;2022-07-23T11:05:00;5.43;;;3.28;;
58404;SDS011;44200;50.732;4.276;2022-07-23T11:07:28;7.25;;;3.35;;
58404;SDS011;44200;50.732;4.276;2022-07-23T11:09:54;5.28;;;3.70;;
58404;SDS011;44200;50.732;4.276;2022-07-23T11:17:31;9.38;;;4.10;;
58404;SDS011;44200;50.732;4.276;2022-07-23T11:22:37;8.20;;;4.20;;
58404;SDS011;44200;50.732;4.276;2022-07-23T11:25:04;6.55;;;4.10;;
58404;SDS011;44200;50.732;4.276;2022-07-23T11:27:42;5.53;;;3.25;;
58404;SDS011;44200;50.732;4.276;2022-07-23T11:35:33;5.68;;;3.88;;
58404;SDS011;44200;50.732;4.276;2022-07-23T11:38:11;5.88;;;3.78;;
58404;SDS011;44200;50.732;4.276;2022-07-23T11:40:40;5.75;;;3.50;;
58404;SDS011;44200;50.732;4.276;2022-07-23T11:43:07;6.38;;;4.45;;
58404;SDS011;44200;50.732;4.276;2022-07-23T11:45:38;7.05;;;4.00;;
58404;SDS011;44200;50.732;4.276;2022-07-23T11:48:09;8.38;;;4.63;;
58404;SDS011;44200;50.732;4.276;2022-07-23T11:50:41;6.03;;;4.20;;
58404;SDS011;44200;50.732;4.276;2022-07-23T11:53:07;7.05;;;3.90;;
58404;SDS011;44200;50.732;4.276;2022-07-23T11:55:32;4.38;;;3.60;;
58404;SDS011;44200;50.732;4.276;2022-07-23T11:57:58;5.00;;;3.35;;
58404;SDS011;44200;50.732;4.276;2022-07-23T12:00:24;7.32;;;4.25;;
58404;SDS011;44200;50.732;4.276;2022-07-23T12:02:52;5.32;;;3.97;;
58404;SDS011;44200;50.732;4.276;2022-07-23T12:05:30;6.07;;;3.50;;
58404;SDS011;44200;50.732;4.276;2022-07-23T12:07:58;7.70;;;4.50;;
58404;SDS011;44200;50.732;4.276;2022-07-23T12:15:23;7.45;;;4.13;;
58404;SDS011;44200;50.732;4.276;2022-07-23T12:17:54;5.18;;;3.70;;
58404;SDS011;44200;50.732;4.276;2022-07-23T12:20:24;7.88;;;3.72;;
58404;SDS011;44200;50.732;4.276;2022-07-23T12:22:52;6.20;;;3.70;;
58404;SDS011;44200;50.732;4.276;2022-07-23T12:25:22;6.75;;;4.43;;
58404;SDS011;44200;50.732;4.276;2022-07-23T12:28:06;7.13;;;3.83;;
58404;SDS011;44200;50.732;4.276;2022-07-23T12:30:49;5.72;;;4.35;;
58404;SDS011;44200;50.732;4.276;2022-07-23T12:33:24;6.20;;;4.38;;
58404;SDS011;44200;50.732;4.276;2022-07-23T12:35:55;6.88;;;3.85;;
58404;SDS011;44200;50.732;4.276;2022-07-23T12:38:24;7.88;;;3.63;;
58404;SDS011;44200;50.732;4.276;2022-07-23T12:40:53;5.10;;;4.00;;
58404;SDS011;44200;50.732;4.276;2022-07-23T12:45:50;10.00;;;4.63;;
58404;SDS011;44200;50.732;4.276;2022-07-23T12:53:18;7.30;;;4.10;;
58404;SDS011;44200;50.732;4.276;2022-07-23T12:55:48;6.50;;;4.60;;
58404;SDS011;44200;50.732;4.276;2022-07-23T12:58:16;5.85;;;4.15;;
58404;SDS011;44200;50.732;4.276;2022-07-23T13:00:59;7.30;;;4.75;;
58404;SDS011;44200;50.732;4.276;2022-07-23T13:03:28;7.10;;;4.30;;
58404;SDS011;44200;50.732;4.276;2022-07-23T13:05:58;10.20;;;4.32;;
58404;SDS011;44200;50.732;4.276;2022-07-23T13:08:27;10.15;;;3.88;;
58404;SDS011;44200;50.732;4.276;2022-07-23T13:10:54;6.38;;;4.13;;
58404;SDS011;44200;50.732;4.276;2022-07-23T13:13:20;5.47;;;3.75;;
58404;SDS011;44200;50.732;4.276;2022-07-23T13:15:48;9.23;;;4.20;;
58404;SDS011;44200;50.732;4.276;2022-07-23T13:18:14;7.18;;;3.97;;
58404;SDS011;44200;50.732;4.276;2022-07-23T13:20:41;6.25;;;3.97;;
58404;SDS011;44200;50.732;4.276;2022-07-23T13:23:08;5.00;;;3.60;;
58404;SDS011;44200;50.732;4.276;2022-07-23T13:25:33;5.72;;;3.83;;
58404;SDS011;44200;50.732;4.276;2022-07-23T13:27:59;6.05;;;3.83;;
58404;SDS011;44200;50.732;4.276;2022-07-23T13:30:25;5.72;;;3.92;;
58404;SDS011;44200;50.732;4.276;2022-07-23T13:32:51;6.78;;;3.70;;
58404;SDS011;44200;50.732;4.276;2022-07-23T13:35:16;7.22;;;4.35;;
58404;SDS011;44200;50.732;4.276;2022-07-23T13:37:42;6.03;;;3.85;;
58404;SDS011;44200;50.732;4.276;2022-07-23T13:40:08;6.70;;;4.05;;
58404;SDS011;44200;50.732;4.276;2022-07-23T13:42:34;7.80;;;3.80;;
58404;SDS011;44200;50.732;4.276;2022-07-23T13:45:00;5.60;;;4.07;;
58404;SDS011;44200;50.732;4.276;2022-07-23T13:47:26;7.68;;;4.68;;
58404;SDS011;44200;50.732;4.276;2022-07-23T13:49:52;10.02;;;4.18;;
58404;SDS011;44200;50.732;4.276;2022-07-23T13:52:17;7.25;;;3.97;;
58404;SDS011;44200;50.732;4.276;2022-07-23T13:54:43;7.35;;;3.83;;
58404;SDS011;44200;50.732;4.276;2022-07-23T13:57:09;6.70;;;4.10;;
58404;SDS011;44200;50.732;4.276;2022-07-23T13:59:35;6.43;;;4.07;;
58404;SDS011;44200;50.732;4.276;2022-07-23T14:02:01;8.13;;;4.50;;
58404;SDS011;44200;50.732;4.276;2022-07-23T14:04:28;9.55;;;4.35;;
58404;SDS011;44200;50.732;4.276;2022-07-23T14:06:54;12.98;;;4.25;;
58404;SDS011;44200;50.732;4.276;2022-07-23T14:09:19;7.50;;;3.85;;
58404;SDS011;44200;50.732;4.276;2022-07-23T14:11:45;9.05;;;4.40;;
58404;SDS011;44200;50.732;4.276;2022-07-23T14:14:11;6.88;;;4.30;;
58404;SDS011;44200;50.732;4.276;2022-07-23T14:16:36;8.02;;;4.55;;
58404;SDS011;44200;50.732;4.276;2022-07-23T14:19:02;7.72;;;4.20;;
58404;SDS011;44200;50.732;4.276;2022-07-23T14:21:28;7.18;;;4.30;;
58404;SDS011;44200;50.732;4.276;2022-07-23T14:23:53;8.98;;;4.00;;
58404;SDS011;44200;50.732;4.276;2022-07-23T14:26:19;7.30;;;3.88;;
58404;SDS011;44200;50.732;4.276;2022-07-23T14:28:45;8.70;;;4.22;;
58404;SDS011;44200;50.732;4.276;2022-07-23T14:31:14;8.95;;;4.65;;
58404;SDS011;44200;50.732;4.276;2022-07-23T14:33:39;7.63;;;4.40;;
58404;SDS011;44200;50.732;4.276;2022-07-23T14:36:05;5.95;;;4.30;;
58404;SDS011;44200;50.732;4.276;2022-07-23T14:38:31;6.72;;;4.20;;
58404;SDS011;44200;50.732;4.276;2022-07-23T14:40:57;8.48;;;4.53;;
58404;SDS011;44200;50.732;4.276;2022-07-23T14:43:23;9.15;;;4.72;;
58404;SDS011;44200;50.732;4.276;2022-07-23T14:45:48;7.15;;;4.70;;
58404;SDS011;44200;50.732;4.276;2022-07-23T14:48:14;7.43;;;4.65;;
58404;SDS011;44200;50.732;4.276;2022-07-23T14:50:40;6.78;;;4.85;;
58404;SDS011;44200;50.732;4.276;2022-07-23T14:53:05;7.25;;;4.50;;
58404;SDS011;44200;50.732;4.276;2022-07-23T14:55:31;6.00;;;4.45;;
58404;SDS011;44200;50.732;4.276;2022-07-23T14:57:57;8.68;;;4.05;;
58404;SDS011;44200;50.732;4.276;2022-07-23T15:00:23;6.13;;;4.35;;
58404;SDS011;44200;50.732;4.276;2022-07-23T15:02:50;5.32;;;4.13;;
58404;SDS011;44200;50.732;4.276;2022-07-23T15:05:19;7.32;;;4.22;;
58404;SDS011;44200;50.732;4.276;2022-07-23T15:07:44;6.95;;;4.22;;
58404;SDS011;44200;50.732;4.276;2022-07-23T15:10:11;8.00;;;4.57;;
58404;SDS011;44200;50.732;4.276;2022-07-23T15:12:37;8.65;;;4.22;;
58404;SDS011;44200;50.732;4.276;2022-07-23T15:15:03;6.25;;;4.35;;
58404;SDS011;44200;50.732;4.276;2022-07-23T15:17:29;8.93;;;4.38;;
58404;SDS011;44200;50.732;4.276;2022-07-23T15:19:55;10.43;;;4.45;;
58404;SDS011;44200;50.732;4.276;2022-07-23T15:22:21;7.47;;;4.30;;
58404;SDS011;44200;50.732;4.276;2022-07-23T15:24:46;10.57;;;4.65;;